Time;durP1;ratioP1;P1;durP2;ratioP2;P2;SDS_P1;SDS_P2;PMS_P1;PMS_P2;Temp;Humidity;BMP_temperature;BMP_pressure;BME280_temperature;BME280_humidity;BME280_pressure;Samples;Min_cycle;Max_cycle;Signal;HPM_P1;HPM_P2
2022/08/09 00:01:07;;;;;;;5.07;2.72;;;18.60;31.70;;;;;;5070955;28;20024;-52
2022/08/09 00:03:32;;;;;;;7.22;2.53;;;18.60;31.50;;;;;;5050362;28;20040;-52
2022/08/09 00:05:58;;;;;;;4.68;2.30;;;18.60;31.50;;;;;;5070897;28;20382;-53
2022/08/09 00:08:23;;;;;;;3.67;1.95;;;18.60;32.00;;;;;;5050347;28;20102;-51
2022/08/09 00:10:49;;;;;;;3.05;2.25;;;18.60;32.50;;;;;;5069330;28;20158;-53
2022/08/09 00:13:15;;;;;;;5.25;2.80;;;18.60;32.60;;;;;;5048483;28;20486;-52
2022/08/09 00:15:40;;;;;;;3.55;2.80;;;18.60;33.50;;;;;;5071512;28;20058;-46
2022/08/09 00:18:06;;;;;;;5.00;2.50;;;18.60;32.80;;;;;;5050077;28;20033;-53
2022/08/09 00:20:31;;;;;;;5.10;2.70;;;18.60;32.80;;;;;;5070543;28;20439;-47
2022/08/09 00:22:57;;;;;;;4.05;2.95;;;18.60;32.90;;;;;;5049977;28;20132;-53
2022/08/09 00:25:22;;;;;;;3.78;2.42;;;18.60;33.40;;;;;;5070565;28;20405;-53
2022/08/09 00:27:48;;;;;;;4.65;2.80;;;18.60;32.50;;;;;;5048719;28;20117;-53
2022/08/09 00:30:13;;;;;;;3.80;2.90;;;18.60;33.60;;;;;;5069104;28;20028;-49
2022/08/09 00:32:40;;;;;;;3.72;2.95;;;18.70;32.90;;;;;;5049889;28;20037;-51
2022/08/09 00:35:06;;;;;;;3.55;2.33;;;18.60;33.50;;;;;;5070267;28;20025;-50
2022/08/09 00:37:31;;;;;;;3.92;2.45;;;18.60;33.40;;;;;;5049641;28;20044;-49
2022/08/09 00:39:57;;;;;;;3.97;2.30;;;18.60;34.00;;;;;;5070038;28;20078;-49
2022/08/09 00:42:22;;;;;;;3.08;2.63;;;18.60;32.70;;;;;;5049601;28;20481;-50
2022/08/09 00:44:48;;;;;;;3.55;2.58;;;18.60;34.30;;;;;;5070227;28;20020;-50
2022/08/09 00:47:14;;;;;;;3.70;2.22;;;18.60;33.20;;;;;;5049506;28;20033;-53
2022/08/09 00:49:39;;;;;;;2.95;2.40;;;18.60;32.80;;;;;;5054820;28;20032;-51
2022/08/09 00:52:05;;;;;;;4.28;2.65;;;18.60;33.00;;;;;;5062723;28;20496;-51
2022/08/09 00:54:32;;;;;;;4.88;2.53;;;18.60;32.90;;;;;;5050665;28;20068;-53
2022/08/09 00:56:58;;;;;;;4.95;2.53;;;18.60;33.00;;;;;;5063219;28;20037;-50
2022/08/09 00:59:24;;;;;;;7.05;2.97;;;18.60;33.20;;;;;;5050678;28;20060;-54
2022/08/09 01:01:50;;;;;;;3.05;2.28;;;18.60;33.90;;;;;;5064046;28;20057;-49
2022/08/09 01:04:33;;;;;;;3.25;2.75;;;18.60;34.10;;;;;;5050507;28;20100;-53
2022/08/09 01:07:18;;;;;;;3.13;2.47;;;18.60;34.20;;;;;;5033531;28;20563;-50
2022/08/09 01:10:02;;;;;;;4.70;2.67;;;18.60;34.00;;;;;;5050528;28;20024;-52
2022/08/09 01:12:38;;;;;;;6.03;2.78;;;18.60;33.80;;;;;;5037444;28;20489;-54
2022/08/09 01:15:15;;;;;;;5.00;2.97;;;18.60;34.20;;;;;;5025163;28;20041;-50
2022/08/09 01:18:02;;;;;;;5.63;2.58;;;18.60;34.70;;;;;;5038761;28;20041;-48
2022/08/09 01:20:44;;;;;;;3.15;2.47;;;18.60;35.20;;;;;;5030339;28;20030;-49
2022/08/09 01:23:43;;;;;;;3.55;2.60;;;18.60;34.90;;;;;;5053877;28;20552;-49
2022/08/09 01:26:37;;;;;;;3.67;2.50;;;18.60;35.10;;;;;;5030243;28;20032;-48
2022/08/09 01:29:05;;;;;;;4.68;2.78;;;18.60;35.20;;;;;;5030183;28;20053;-51
2022/08/09 01:31:34;;;;;;;3.58;2.33;;;18.50;34.60;;;;;;5065788;28;20556;-50
2022/08/09 01:34:03;;;;;;;4.47;2.80;;;18.50;35.90;;;;;;5049995;28;20024;-47
2022/08/09 01:36:30;;;;;;;5.22;2.70;;;18.50;34.80;;;;;;5069597;28;20064;-49
2022/08/09 01:38:57;;;;;;;3.63;2.97;;;18.50;35.10;;;;;;5030091;28;20390;-46
2022/08/09 01:41:31;;;;;;;4.45;2.50;;;18.50;35.20;;;;;;5068877;28;20024;-48
2022/08/09 01:44:00;;;;;;;3.80;2.47;;;18.50;35.00;;;;;;5029871;28;20021;-50
2022/08/09 01:46:33;;;;;;;5.38;2.80;;;18.50;35.10;;;;;;5069496;28;20020;-48
2022/08/09 01:49:03;;;;;;;2.80;2.22;;;18.50;34.70;;;;;;5029784;28;20048;-46
2022/08/09 01:51:30;;;;;;;3.35;2.40;;;18.50;34.70;;;;;;5069293;28;20048;-47
2022/08/09 01:53:58;;;;;;;4.68;2.70;;;18.50;34.80;;;;;;5048180;28;20102;-49
2022/08/09 01:56:26;;;;;;;5.00;2.50;;;18.50;35.00;;;;;;5069205;28;20500;-60
2022/08/09 01:58:52;;;;;;;8.30;2.33;;;18.40;34.70;;;;;;5048159;28;20060;-60
2022/08/09 02:01:18;;;;;;;8.30;2.20;;;18.40;35.10;;;;;;5068911;28;20028;-60
2022/08/09 02:03:46;;;;;;;2.30;2.10;;;18.50;34.80;;;;;;5046841;28;20061;-59
2022/08/09 02:06:13;;;;;;;3.75;2.00;;;18.40;34.70;;;;;;5069000;28;20028;-60
2022/08/09 02:08:43;;;;;;;3.10;2.20;;;18.40;34.50;;;;;;5047927;28;20405;-60
2022/08/09 02:11:12;;;;;;;3.78;1.92;;;18.40;34.80;;;;;;5029627;28;20057;-60
2022/08/09 02:13:39;;;;;;;2.28;2.00;;;18.50;34.90;;;;;;5052591;28;20090;-60
2022/08/09 02:16:08;;;;;;;2.53;2.05;;;18.40;34.80;;;;;;5069453;28;20446;-60
2022/08/09 02:18:36;;;;;;;4.18;2.33;;;18.40;35.00;;;;;;5047561;28;20041;-58
2022/08/09 02:21:09;;;;;;;4.10;2.00;;;18.40;34.90;;;;;;5068825;28;20086;-60
2022/08/09 02:23:40;;;;;;;3.67;2.58;;;18.40;35.40;;;;;;5043658;28;20033;-59
2022/08/09 02:26:08;;;;;;;2.25;2.00;;;18.40;35.50;;;;;;5029565;28;20401;-60
2022/08/09 02:28:40;;;;;;;3.10;2.40;;;18.40;35.20;;;;;;5051106;28;20021;-60
2022/08/09 02:31:25;;;;;;;3.78;2.60;;;18.40;35.40;;;;;;5069165;28;20028;-59
2022/08/09 02:33:55;;;;;;;4.18;2.20;;;18.40;36.80;;;;;;5047330;28;20726;-59
2022/08/09 02:36:30;;;;;;;4.25;2.80;;;18.30;36.10;;;;;;5072013;28;20041;-60
2022/08/09 02:39:01;;;;;;;4.18;2.88;;;18.30;36.20;;;;;;5050020;28;20684;-56
2022/08/09 02:41:40;;;;;;;2.55;2.33;;;18.30;36.10;;;;;;5033241;28;20071;-59
2022/08/09 02:44:10;;;;;;;2.63;2.38;;;18.30;36.00;;;;;;5051130;28;20025;-60
2022/08/09 02:46:37;;;;;;;2.50;2.08;;;18.30;35.80;;;;;;5072915;28;20106;-60
2022/08/09 02:49:07;;;;;;;3.08;2.22;;;18.30;36.00;;;;;;5051512;28;20133;-60
2022/08/09 02:51:35;;;;;;;4.13;2.28;;;18.30;36.30;;;;;;5072961;28;20048;-59
2022/08/09 02:54:03;;;;;;;2.38;2.10;;;18.30;36.50;;;;;;5051414;28;20040;-60
2022/08/09 02:56:31;;;;;;;3.35;2.40;;;18.30;36.20;;;;;;5072426;28;20032;-59
2022/08/09 02:58:59;;;;;;;4.47;2.20;;;18.30;36.40;;;;;;5051077;28;20025;-59
2022/08/09 03:01:25;;;;;;;3.50;1.83;;;18.30;36.30;;;;;;5072091;28;20453;-59
2022/08/09 03:03:52;;;;;;;2.40;2.05;;;18.20;36.90;;;;;;5051283;28;20037;-60
2022/08/09 03:06:21;;;;;;;3.05;1.70;;;18.20;36.40;;;;;;5071973;28;20029;-60
2022/08/09 03:08:47;;;;;;;2.35;1.77;;;18.20;36.60;;;;;;5051061;28;20123;-59
2022/08/09 03:11:16;;;;;;;2.35;1.98;;;18.20;36.50;;;;;;5071941;28;20020;-59
2022/08/09 03:13:44;;;;;;;4.18;2.10;;;18.20;36.80;;;;;;5050399;28;20017;-58
2022/08/09 03:16:10;;;;;;;2.70;2.33;;;18.20;37.10;;;;;;5072469;28;20073;-59
2022/08/09 03:18:36;;;;;;;3.42;2.35;;;18.20;37.00;;;;;;5051253;28;20025;-59
2022/08/09 03:21:04;;;;;;;5.65;2.45;;;18.20;37.10;;;;;;5071810;28;20455;-57
2022/08/09 03:23:30;;;;;;;2.67;2.47;;;18.20;37.90;;;;;;5050821;28;20037;-60
2022/08/09 03:25:57;;;;;;;3.70;2.65;;;18.20;38.10;;;;;;5071833;28;20111;-57
2022/08/09 03:28:24;;;;;;;3.58;2.10;;;18.10;38.70;;;;;;5050928;28;20040;-60
2022/08/09 03:30:50;;;;;;;2.85;2.13;;;18.10;38.00;;;;;;5071681;28;20033;-60
2022/08/09 03:33:17;;;;;;;2.53;2.20;;;18.10;37.80;;;;;;5050852;28;20405;-60
2022/08/09 03:35:43;;;;;;;2.78;2.38;;;18.20;37.80;;;;;;5071599;28;20515;-59
2022/08/09 03:38:09;;;;;;;3.17;2.40;;;18.10;38.00;;;;;;5050840;28;20029;-60
2022/08/09 03:40:34;;;;;;;3.58;2.33;;;18.10;38.20;;;;;;5071343;28;20041;-60
2022/08/09 03:43:00;;;;;;;2.30;2.10;;;18.10;38.20;;;;;;5050823;28;20063;-60
2022/08/09 03:45:25;;;;;;;4.05;2.67;;;18.20;38.20;;;;;;5071397;28;20028;-59
2022/08/09 03:47:51;;;;;;;3.80;2.35;;;18.10;38.40;;;;;;5050291;28;20071;-59
2022/08/09 03:50:19;;;;;;;4.07;2.17;;;18.10;38.60;;;;;;5060948;28;20493;-59
2022/08/09 03:52:44;;;;;;;2.72;1.92;;;18.10;38.70;;;;;;5050192;28;20025;-59
2022/08/09 03:55:12;;;;;;;5.13;2.50;;;18.10;38.90;;;;;;5051763;28;20099;-60
2022/08/09 03:57:38;;;;;;;4.45;2.50;;;18.10;39.20;;;;;;5064063;28;20029;-59
2022/08/09 04:00:04;;;;;;;2.10;1.90;;;18.10;39.10;;;;;;5051763;28;20400;-60
2022/08/09 04:02:30;;;;;;;3.58;2.20;;;18.10;39.00;;;;;;5064857;28;20033;-60
2022/08/09 04:04:58;;;;;;;2.47;1.77;;;18.10;39.40;;;;;;5051720;28;20059;-59
2022/08/09 04:07:24;;;;;;;2.78;2.10;;;18.10;39.30;;;;;;5066017;28;20013;-59
2022/08/09 04:09:49;;;;;;;6.00;2.45;;;18.10;39.20;;;;;;5051767;28;20029;-60
2022/08/09 04:12:15;;;;;;;3.92;2.33;;;18.10;39.30;;;;;;5066998;28;20036;-60
2022/08/09 04:14:41;;;;;;;2.90;2.40;;;18.10;39.20;;;;;;5045571;28;20401;-59
2022/08/09 04:17:07;;;;;;;3.33;2.40;;;18.10;39.20;;;;;;5068214;28;20033;-60
2022/08/09 04:19:33;;;;;;;4.18;2.15;;;18.10;39.70;;;;;;5051403;28;20032;-59
2022/08/09 04:22:00;;;;;;;2.50;2.30;;;18.10;40.00;;;;;;5070663;28;20361;-59
2022/08/09 04:24:25;;;;;;;5.50;2.10;;;18.10;39.80;;;;;;5049893;28;20122;-58
2022/08/09 04:26:52;;;;;;;3.50;2.13;;;18.10;39.80;;;;;;5070567;28;20675;-59
2022/08/09 04:29:18;;;;;;;3.92;2.50;;;18.10;40.00;;;;;;5049720;28;20037;-60
2022/08/09 04:31:44;;;;;;;2.67;1.75;;;18.10;39.90;;;;;;5070450;28;20396;-60
2022/08/09 04:34:09;;;;;;;4.15;2.45;;;18.10;39.80;;;;;;5049978;28;20400;-60
2022/08/09 04:36:35;;;;;;;3.17;2.50;;;18.20;39.70;;;;;;5070340;28;20052;-60
2022/08/09 04:39:07;;;;;;;2.97;2.40;;;18.20;39.90;;;;;;5049773;28;20028;-59
2022/08/09 04:41:33;;;;;;;3.83;2.22;;;18.20;39.70;;;;;;5031048;28;20701;-59
2022/08/09 04:43:58;;;;;;;2.88;2.03;;;18.20;40.00;;;;;;5052343;28;20040;-59
2022/08/09 04:46:24;;;;;;;3.05;2.40;;;18.20;39.90;;;;;;5070337;28;20028;-59
2022/08/09 04:48:49;;;;;;;3.35;1.95;;;18.20;39.60;;;;;;5049820;28;20429;-60
2022/08/09 04:51:15;;;;;;;4.18;2.20;;;18.20;39.60;;;;;;5069997;28;20087;-59
2022/08/09 04:53:40;;;;;;;3.80;2.40;;;18.20;39.70;;;;;;5049646;28;20431;-60
2022/08/09 04:56:06;;;;;;;3.03;2.40;;;18.30;39.50;;;;;;5069963;28;20520;-59
2022/08/09 04:58:32;;;;;;;4.78;2.67;;;18.30;39.50;;;;;;5048906;28;20396;-60
2022/08/09 05:00:59;;;;;;;2.97;2.38;;;18.30;39.50;;;;;;5070121;28;20390;-58
2022/08/09 05:03:24;;;;;;;4.32;2.63;;;18.30;39.10;;;;;;5049039;28;20033;-59
2022/08/09 05:05:50;;;;;;;4.65;2.35;;;18.30;39.00;;;;;;5070118;28;20043;-59
2022/08/09 05:08:15;;;;;;;4.00;2.00;;;18.40;39.00;;;;;;5049266;28;20036;-59
2022/08/09 05:10:41;;;;;;;2.75;2.35;;;18.40;38.80;;;;;;5069732;28;20031;-59
2022/08/09 05:13:07;;;;;;;3.58;2.50;;;18.40;38.50;;;;;;5048902;28;20040;-59
2022/08/09 05:15:32;;;;;;;4.00;2.30;;;18.50;38.30;;;;;;5046478;28;20029;-58
2022/08/09 05:17:58;;;;;;;4.07;2.28;;;18.50;38.20;;;;;;5061525;28;20048;-59
2022/08/09 05:20:26;;;;;;;3.08;2.60;;;18.50;38.00;;;;;;5050484;28;20036;-59
2022/08/09 05:22:52;;;;;;;3.53;2.30;;;18.70;37.70;;;;;;5062998;28;20021;-59
2022/08/09 05:25:22;;;;;;;5.38;2.40;;;18.70;37.60;;;;;;5050467;28;20029;-59
2022/08/09 05:27:49;;;;;;;4.78;2.95;;;18.80;37.50;;;;;;5063458;28;20024;-60
2022/08/09 05:30:16;;;;;;;2.63;2.42;;;18.80;37.30;;;;;;5050243;28;20020;-59
2022/08/09 05:32:42;;;;;;;6.15;2.70;;;18.90;36.90;;;;;;5064192;28;20096;-59
2022/08/09 05:35:08;;;;;;;4.03;2.45;;;18.90;36.70;;;;;;5050098;28;20124;-58
2022/08/09 05:37:33;;;;;;;3.42;2.63;;;19.00;36.60;;;;;;5065498;28;20024;-60
2022/08/09 05:39:59;;;;;;;5.05;3.00;;;19.10;36.30;;;;;;5050028;28;20032;-58
2022/08/09 05:42:24;;;;;;;3.17;2.88;;;19.10;36.20;;;;;;5066626;28;20087;-60
2022/08/09 05:44:51;;;;;;;3.85;2.85;;;19.20;35.90;;;;;;5050173;28;20481;-59
2022/08/09 05:47:18;;;;;;;4.13;2.90;;;19.40;35.70;;;;;;5069513;28;20374;-59
2022/08/09 05:49:43;;;;;;;3.13;2.58;;;19.40;35.00;;;;;;5052700;28;20048;-59
2022/08/09 05:52:09;;;;;;;4.05;2.50;;;19.50;35.00;;;;;;5069851;28;20086;-60
2022/08/09 05:54:34;;;;;;;4.05;2.58;;;19.60;34.50;;;;;;5048651;28;20036;-59
2022/08/09 05:57:00;;;;;;;3.70;2.38;;;19.80;34.40;;;;;;5069143;28;20040;-58
2022/08/09 05:59:25;;;;;;;2.72;2.30;;;19.90;33.90;;;;;;5048587;28;20036;-59
2022/08/09 06:01:51;;;;;;;5.47;2.50;;;20.10;33.70;;;;;;5069130;28;20425;-59
2022/08/09 06:04:16;;;;;;;3.10;2.70;;;20.30;32.50;;;;;;5048595;28;20025;-59
2022/08/09 06:06:42;;;;;;;4.03;2.58;;;20.40;32.00;;;;;;5069221;28;20032;-58
2022/08/09 06:09:07;;;;;;;3.72;2.42;;;20.60;31.60;;;;;;5048347;28;20493;-59
2022/08/09 06:11:33;;;;;;;4.80;2.90;;;20.80;30.70;;;;;;5048794;28;20107;-59
2022/08/09 06:13:58;;;;;;;2.92;2.63;;;21.00;29.70;;;;;;5044692;28;20389;-60
2022/08/09 06:16:24;;;;;;;4.30;2.47;;;21.20;28.80;;;;;;5048375;28;20036;-60
2022/08/09 06:18:49;;;;;;;4.32;2.92;;;21.40;28.30;;;;;;5046429;28;20129;-60
2022/08/09 06:21:15;;;;;;;6.43;2.78;;;21.60;27.80;;;;;;5068017;28;20426;-60
2022/08/09 06:23:40;;;;;;;2.47;2.10;;;21.90;26.20;;;;;;5047149;28;20041;-60
2022/08/09 06:26:06;;;;;;;6.97;2.72;;;22.20;26.60;;;;;;5067686;28;20086;-60
2022/08/09 06:28:31;;;;;;;5.13;3.25;;;22.60;24.80;;;;;;5047266;28;20052;-60
2022/08/09 06:30:57;;;;;;;6.35;3.15;;;22.80;24.90;;;;;;5067225;28;20033;-59
2022/08/09 06:33:22;;;;;;;3.30;2.60;;;23.00;22.40;;;;;;5045515;28;20051;-60
2022/08/09 06:35:48;;;;;;;5.20;2.40;;;23.20;23.70;;;;;;5046809;28;20063;-60
2022/08/09 06:38:13;;;;;;;4.72;2.33;;;23.20;23.90;;;;;;5052001;28;20031;-60
2022/08/09 06:40:39;;;;;;;4.07;2.67;;;23.10;23.10;;;;;;5068502;28;20052;-61
2022/08/09 06:43:05;;;;;;;3.03;2.13;;;23.10;23.00;;;;;;5047169;28;20032;-60
2022/08/09 06:45:30;;;;;;;3.70;2.55;;;23.20;23.00;;;;;;5048725;28;20039;-60
2022/08/09 06:47:56;;;;;;;4.75;2.45;;;23.20;22.30;;;;;;5065609;28;20020;-57
2022/08/09 06:50:21;;;;;;;4.07;1.98;;;23.60;22.40;;;;;;5058271;28;20041;-60
2022/08/09 06:52:47;;;;;;;2.28;2.00;;;24.00;21.40;;;;;;5046402;28;20041;-62
2022/08/09 06:55:15;;;;;;;2.90;2.30;;;24.20;20.30;;;;;;5048328;28;20358;-60
2022/08/09 06:57:40;;;;;;;2.75;2.10;;;24.20;19.50;;;;;;5057280;28;20025;-60
2022/08/09 07:00:08;;;;;;;2.65;2.45;;;24.20;20.50;;;;;;5068728;28;20438;-60
2022/08/09 07:02:34;;;;;;;3.30;2.00;;;24.30;17.90;;;;;;5048530;28;20104;-60
2022/08/09 07:05:00;;;;;;;3.25;2.60;;;24.90;18.60;;;;;;5066020;28;20112;-59
2022/08/09 07:07:27;;;;;;;4.80;2.30;;;25.20;15.70;;;;;;5048399;28;20032;-60
2022/08/09 07:09:52;;;;;;;4.75;2.40;;;25.20;16.00;;;;;;5047467;28;20112;-59
2022/08/09 07:12:18;;;;;;;4.13;2.83;;;25.60;16.80;;;;;;5067601;28;20162;-60
2022/08/09 07:14:47;;;;;;;2.53;2.15;;;26.80;14.90;;;;;;5043572;28;20037;-60
2022/08/09 07:17:13;;;;;;;3.72;2.30;;;28.70;9.20;;;;;;5066158;28;20028;-58
2022/08/09 07:19:39;;;;;;;3.03;2.20;;;30.20;7.80;;;;;;5046569;28;20112;-58
2022/08/09 07:22:04;;;;;;;2.13;1.83;;;31.60;4.60;;;;;;5069583;28;20654;-55
2022/08/09 07:24:30;;;;;;;4.45;2.38;;;32.50;4.80;;;;;;5049776;28;20029;-58
2022/08/09 07:26:56;;;;;;;4.63;2.60;;;32.90;1.00;;;;;;5070981;28;20484;-57
2022/08/09 07:29:22;;;;;;;13.02;2.53;;;32.50;1.00;;;;;;5050220;28;20096;-58
2022/08/09 07:31:47;;;;;;;4.55;2.20;;;31.90;1.00;;;;;;5070424;28;20112;-58
2022/08/09 07:34:13;;;;;;;2.53;2.15;;;32.50;1.00;;;;;;5049825;28;20457;-59
2022/08/09 07:36:39;;;;;;;2.25;2.03;;;33.00;1.00;;;;;;5070324;28;20033;-58
2022/08/09 07:39:05;;;;;;;1.98;1.77;;;34.20;1.00;;;;;;5049991;28;20033;-58
2022/08/09 07:41:31;;;;;;;2.47;1.83;;;34.70;1.00;;;;;;5070420;28;20032;-59
2022/08/09 07:43:57;;;;;;;2.60;2.08;;;35.20;1.00;;;;;;5049440;28;20025;-57
2022/08/09 07:46:23;;;;;;;3.15;1.90;;;35.10;1.00;;;;;;5070232;28;20028;-58
2022/08/09 07:48:48;;;;;;;2.25;1.70;;;34.30;1.00;;;;;;5058542;28;20021;-58
2022/08/09 07:51:14;;;;;;;6.10;2.15;;;33.90;1.00;;;;;;5051271;28;20430;-59
2022/08/09 07:53:39;;;;;;;1.70;1.60;;;33.40;1.00;;;;;;5059812;28;20035;-59
2022/08/09 07:56:05;;;;;;;1.98;1.85;;;33.30;1.00;;;;;;5050519;28;20103;-58
2022/08/09 07:58:31;;;;;;;4.82;2.20;;;33.70;1.00;;;;;;5060953;28;20083;-58
2022/08/09 08:00:56;;;;;;;2.20;1.90;;;34.00;1.00;;;;;;5051006;28;20079;-51
2022/08/09 08:03:22;;;;;;;2.72;1.88;;;34.30;1.00;;;;;;5068257;28;20439;-45
2022/08/09 08:05:47;;;;;;;2.17;1.60;;;33.30;1.00;;;;;;5070666;28;20029;-46
2022/08/09 08:08:13;;;;;;;2.75;1.95;;;33.00;1.00;;;;;;5050908;28;20089;-44
2022/08/09 08:10:38;;;;;;;2.65;1.85;;;32.80;1.00;;;;;;5071260;28;20028;-47
2022/08/09 08:13:04;;;;;;;5.40;1.70;;;32.00;1.00;;;;;;5051401;28;20120;-47
2022/08/09 08:15:30;;;;;;;2.05;1.50;;;32.00;1.00;;;;;;5064999;28;20554;-46
2022/08/09 08:17:55;;;;;;;2.00;1.80;;;32.20;1.00;;;;;;5049707;28;20321;-47
2022/08/09 08:20:23;;;;;;;2.17;1.80;;;31.00;1.00;;;;;;5070609;28;20424;-50
2022/08/09 08:22:49;;;;;;;3.72;1.70;;;30.90;1.00;;;;;;5049580;28;20033;-51
2022/08/09 08:25:14;;;;;;;2.20;1.60;;;31.30;1.00;;;;;;5068868;28;20051;-50
2022/08/09 08:27:40;;;;;;;3.67;1.58;;;31.20;1.00;;;;;;5051112;28;20488;-52
2022/08/09 08:30:07;;;;;;;3.03;1.85;;;31.60;1.00;;;;;;5049539;28;20512;-48
2022/08/09 08:32:32;;;;;;;4.28;1.60;;;31.50;1.00;;;;;;5068794;28;20034;-46
2022/08/09 08:34:59;;;;;;;2.38;1.70;;;31.30;1.00;;;;;;5049077;28;20112;-46
2022/08/09 08:37:28;;;;;;;2.28;1.40;;;31.50;1.00;;;;;;5069656;28;20670;-49
2022/08/09 08:39:53;;;;;;;2.38;1.63;;;31.50;1.00;;;;;;5048674;28;20040;-50
2022/08/09 08:42:20;;;;;;;1.50;1.40;;;31.50;1.00;;;;;;5069419;28;20029;-50
2022/08/09 08:44:51;;;;;;;2.00;1.85;;;31.50;1.00;;;;;;5048955;28;20096;-50
2022/08/09 08:47:16;;;;;;;1.98;1.50;;;31.10;1.00;;;;;;5029559;28;20051;-47
2022/08/09 08:49:42;;;;;;;1.77;1.50;;;31.10;1.00;;;;;;5056327;28;20033;-50
2022/08/09 08:52:08;;;;;;;3.13;1.60;;;31.40;1.00;;;;;;5036439;28;20029;-53
2022/08/09 08:54:34;;;;;;;4.75;1.90;;;31.30;1.00;;;;;;5053577;28;20497;-45
2022/08/09 08:57:02;;;;;;;4.43;1.63;;;31.50;1.00;;;;;;5063459;28;20031;-49
2022/08/09 08:59:27;;;;;;;3.83;1.80;;;30.80;1.00;;;;;;5055693;28;20037;-48
2022/08/09 09:01:54;;;;;;;2.10;1.60;;;30.80;1.00;;;;;;5069134;28;20036;-51
2022/08/09 09:04:25;;;;;;;2.28;1.60;;;30.40;1.00;;;;;;5059527;28;20381;-48
2022/08/09 09:06:53;;;;;;;2.65;1.75;;;30.60;1.00;;;;;;5028523;28;20036;-53
2022/08/09 09:09:20;;;;;;;2.25;1.75;;;30.00;1.00;;;;;;5066902;28;20028;-51
2022/08/09 09:11:46;;;;;;;1.58;1.48;;;30.20;1.00;;;;;;5050213;28;20457;-53
2022/08/09 09:14:20;;;;;;;2.70;1.83;;;30.50;1.00;;;;;;5053814;28;20037;-49
2022/08/09 09:16:45;;;;;;;5.35;1.90;;;30.10;1.00;;;;;;5029868;28;20075;-48
2022/08/09 09:19:11;;;;;;;2.83;1.50;;;29.80;1.00;;;;;;5065864;28;20068;-51
2022/08/09 09:22:14;;;;;;;2.85;1.45;;;29.70;1.00;;;;;;5049757;28;20385;-52
2022/08/09 09:24:47;;;;;;;1.73;1.63;;;29.90;1.00;;;;;;5053871;28;20119;-48
2022/08/09 09:27:16;;;;;;;1.95;1.30;;;29.90;1.00;;;;;;5029486;28;20048;-53
2022/08/09 09:29:43;;;;;;;2.33;2.05;;;29.90;1.00;;;;;;5053555;28;20478;-50
2022/08/09 09:32:10;;;;;;;1.60;1.45;;;30.00;1.00;;;;;;5068306;28;20039;-52
2022/08/09 09:34:37;;;;;;;1.38;1.27;;;30.30;1.00;;;;;;5047752;28;20073;-48
2022/08/09 09:37:04;;;;;;;3.72;1.70;;;30.70;1.00;;;;;;5068885;28;20032;-52
2022/08/09 09:39:31;;;;;;;1.75;1.45;;;30.90;1.00;;;;;;5047934;28;20029;-53
2022/08/09 09:41:58;;;;;;;1.85;1.60;;;30.80;1.00;;;;;;5068812;28;20039;-51
2022/08/09 09:44:25;;;;;;;3.30;2.15;;;30.60;1.00;;;;;;5057058;28;20024;-53
2022/08/09 09:46:55;;;;;;;2.15;1.90;;;30.30;1.00;;;;;;5048728;28;20497;-51
2022/08/09 09:49:22;;;;;;;3.17;1.80;;;29.60;1.00;;;;;;5044335;28;20032;-48
2022/08/09 09:51:48;;;;;;;2.00;1.77;;;29.60;1.00;;;;;;5048736;28;20032;-49
2022/08/09 09:54:18;;;;;;;3.78;1.83;;;29.60;1.00;;;;;;5066267;28;20103;-50
2022/08/09 09:56:46;;;;;;;2.35;1.70;;;29.70;1.00;;;;;;5048719;28;20055;-53
2022/08/09 09:59:14;;;;;;;2.15;1.50;;;29.70;1.00;;;;;;5066773;28;20134;-52
2022/08/09 10:01:41;;;;;;;2.20;1.83;;;29.60;1.00;;;;;;5048701;28;20025;-49
2022/08/09 10:04:18;;;;;;;1.70;1.60;;;29.20;1.00;;;;;;5066510;28;20123;-52
2022/08/09 10:06:46;;;;;;;2.45;1.90;;;29.40;1.00;;;;;;5028747;28;20493;-53
2022/08/09 10:09:13;;;;;;;2.22;1.55;;;29.40;1.00;;;;;;5052804;28;20044;-51
2022/08/09 10:11:40;;;;;;;1.60;1.40;;;29.40;1.00;;;;;;5048912;28;20036;-51
2022/08/09 10:14:06;;;;;;;2.60;1.83;;;29.50;1.00;;;;;;5051697;28;20103;-50
2022/08/09 10:16:36;;;;;;;2.90;1.50;;;29.80;1.00;;;;;;5068223;28;20037;-51
2022/08/09 10:19:07;;;;;;;4.30;1.88;;;29.90;1.00;;;;;;5053130;28;20044;-52
2022/08/09 10:21:34;;;;;;;2.10;1.45;;;29.60;1.00;;;;;;5069022;28;20024;-49
2022/08/09 10:24:02;;;;;;;1.65;1.55;;;29.60;1.00;;;;;;5053308;28;20031;-51
2022/08/09 10:26:28;;;;;;;3.47;2.15;;;29.60;1.00;;;;;;5068595;28;20082;-53
2022/08/09 10:28:54;;;;;;;1.73;1.63;;;28.90;1.00;;;;;;5051922;28;20171;-50
2022/08/09 10:31:19;;;;;;;2.38;1.75;;;28.60;1.00;;;;;;5068103;28;20091;-52
2022/08/09 10:33:45;;;;;;;2.75;1.90;;;28.70;1.00;;;;;;5047233;28;20131;-53
2022/08/09 10:36:13;;;;;;;2.83;1.92;;;28.60;1.00;;;;;;5048307;28;20033;-49
2022/08/09 10:38:41;;;;;;;3.15;1.80;;;28.40;1.00;;;;;;5066315;28;21434;-50
2022/08/09 10:41:07;;;;;;;5.75;1.80;;;28.00;1.00;;;;;;5068365;28;20544;-49
2022/08/09 10:43:34;;;;;;;1.80;1.70;;;27.50;1.00;;;;;;5047527;28;20116;-53
2022/08/09 10:46:17;;;;;;;3.47;1.85;;;27.30;1.00;;;;;;5068467;28;20027;-51
2022/08/09 10:49:25;;;;;;;2.70;1.65;;;27.40;1.00;;;;;;5031650;28;20025;-53
2022/08/09 10:51:57;;;;;;;2.58;1.88;;;27.50;1.00;;;;;;5033495;28;20087;-47
2022/08/09 10:54:24;;;;;;;2.67;1.90;;;27.80;1.00;;;;;;5050998;28;20340;-53
2022/08/09 10:57:10;;;;;;;3.63;1.70;;;27.90;1.00;;;;;;5047815;28;20685;-50
2022/08/09 10:59:37;;;;;;;3.10;1.75;;;28.10;1.00;;;;;;5065318;28;20060;-51
2022/08/09 11:02:05;;;;;;;2.13;1.80;;;28.20;1.00;;;;;;5049548;28;20029;-51
2022/08/09 11:04:31;;;;;;;4.72;2.25;;;28.30;1.00;;;;;;5066775;28;20036;-48
2022/08/09 11:06:57;;;;;;;1.80;1.70;;;28.20;1.00;;;;;;5050144;28;20025;-50
2022/08/09 11:09:42;;;;;;;2.75;1.75;;;28.10;1.00;;;;;;5055477;28;20585;-49
2022/08/09 11:12:08;;;;;;;5.22;1.70;;;28.20;1.00;;;;;;5027723;28;20117;-48
2022/08/09 11:14:40;;;;;;;3.35;1.65;;;28.50;1.00;;;;;;5060485;28;20031;-47
2022/08/09 11:17:12;;;;;;;1.58;1.48;;;28.70;1.00;;;;;;5029140;28;20056;-48
2022/08/09 11:19:53;;;;;;;3.00;1.83;;;28.80;1.00;;;;;;5056518;28;20032;-48
2022/08/09 11:22:19;;;;;;;3.33;1.52;;;28.90;1.00;;;;;;5048568;28;20046;-46
2022/08/09 11:25:04;;;;;;;3.10;1.90;;;28.80;1.00;;;;;;5066474;28;20032;-47
2022/08/09 11:27:37;;;;;;;3.17;2.15;;;28.70;1.00;;;;;;5041872;28;20477;-48
2022/08/09 11:30:05;;;;;;;1.80;1.70;;;28.70;1.00;;;;;;5050561;28;20120;-47
2022/08/09 11:32:49;;;;;;;2.45;1.63;;;28.80;1.00;;;;;;5051632;28;20030;-50
2022/08/09 11:35:18;;;;;;;2.28;1.80;;;29.00;1.00;;;;;;5036453;28;20367;-48
2022/08/09 11:37:47;;;;;;;2.10;1.42;;;29.00;1.00;;;;;;5068269;28;20085;-47
2022/08/09 11:40:28;;;;;;;5.47;2.22;;;29.10;1.00;;;;;;5041817;28;20064;-51
2022/08/09 11:42:56;;;;;;;3.97;1.77;;;28.50;1.00;;;;;;5047648;28;20049;-48
2022/08/09 11:45:43;;;;;;;3.17;1.85;;;28.30;1.00;;;;;;5051353;28;20036;-50
2022/08/09 11:48:11;;;;;;;4.22;2.03;;;28.30;1.00;;;;;;5027287;28;20515;-50
2022/08/09 11:50:57;;;;;;;4.13;2.08;;;28.40;1.00;;;;;;5044924;28;20045;-46
2022/08/09 11:53:27;;;;;;;3.70;2.10;;;28.50;1.00;;;;;;5038958;28;20044;-47
2022/08/09 11:55:58;;;;;;;4.00;2.20;;;28.20;1.00;;;;;;5028624;28;20589;-47
2022/08/09 11:58:27;;;;;;;2.67;1.70;;;28.10;1.00;;;;;;5042741;28;20085;-49
2022/08/09 12:01:07;;;;;;;5.53;2.53;;;28.10;1.00;;;;;;5036276;28;20033;-50
2022/08/09 12:03:33;;;;;;;2.28;1.95;;;28.20;1.00;;;;;;5040528;28;20032;-53
2022/08/09 12:06:00;;;;;;;2.42;2.17;;;28.20;1.00;;;;;;5066884;28;20036;-52
2022/08/09 12:08:27;;;;;;;3.70;2.05;;;28.00;1.00;;;;;;5049160;28;20038;-51
2022/08/09 12:10:56;;;;;;;3.38;1.85;;;27.70;1.00;;;;;;5048032;28;20070;-50
2022/08/09 12:13:33;;;;;;;2.22;1.98;;;27.60;1.00;;;;;;5057404;28;20028;-48
2022/08/09 12:16:10;;;;;;;4.47;1.55;;;27.60;1.00;;;;;;5027819;28;20041;-50
2022/08/09 12:18:38;;;;;;;2.55;1.75;;;27.60;1.00;;;;;;5029082;28;20501;-51
2022/08/09 12:21:06;;;;;;;2.30;1.85;;;27.40;1.00;;;;;;5056640;28;20116;-53
2022/08/09 12:23:32;;;;;;;2.28;1.90;;;27.30;1.00;;;;;;5062584;28;20091;-49
2022/08/09 12:25:59;;;;;;;2.47;1.75;;;27.50;1.00;;;;;;5045233;28;20489;-46
2022/08/09 12:28:25;;;;;;;4.13;1.65;;;27.60;1.00;;;;;;5061333;28;20051;-52
2022/08/09 12:30:51;;;;;;;2.08;1.88;;;27.80;1.00;;;;;;5046320;28;20033;-53
2022/08/09 12:33:19;;;;;;;1.70;1.55;;;27.80;1.00;;;;;;5046673;28;20037;-53
2022/08/09 12:35:46;;;;;;;3.53;1.75;;;27.80;1.00;;;;;;5038503;28;20033;-48
2022/08/09 12:38:29;;;;;;;1.50;1.30;;;27.90;1.00;;;;;;5056937;28;20140;-51
2022/08/09 12:40:57;;;;;;;2.85;1.83;;;27.90;1.00;;;;;;5043744;28;20709;-49
2022/08/09 12:43:25;;;;;;;3.53;1.75;;;27.80;1.00;;;;;;5067148;28;20048;-47
2022/08/09 12:45:53;;;;;;;4.13;2.20;;;27.70;1.00;;;;;;5028392;28;20044;-53
2022/08/09 12:48:18;;;;;;;3.55;1.90;;;27.60;1.00;;;;;;5056911;28;20037;-49
2022/08/09 12:50:44;;;;;;;3.97;1.70;;;27.50;1.00;;;;;;5036385;28;20445;-52
2022/08/09 12:53:25;;;;;;;2.83;1.90;;;27.40;1.00;;;;;;5065508;28;20763;-48
2022/08/09 12:55:50;;;;;;;3.80;1.73;;;27.50;1.00;;;;;;5028582;28;20049;-49